KCEZ/CEZ METAR and TAF weather

Enter ICAO airport designator
Station Type Date Time Source
KCEZ METAR 2021/05/13 05:53 UTC NOAA

KCEZ 130553Z AUTO 05007KT 10SM CLR 05/M11 A3026 RMK AO2 SLP203 T00501111 10228 20050 51015


Station Type Date Time Source
KCEZ Decoded METAR 2021/05/13 05:53 UTC NOAA

CORTEZ MONTEZUMA COUNTY AIRPORT , CO, United States (KCEZ) 37-18N 108-38W 1797M
May 13, 2021 - 01:53 AM EDT / 2021.05.13 0553 UTC
Wind: from the NE (050 degrees) at 8 MPH (7 KT):0
Visibility: 10 mile(s):0
Sky conditions: clear
Temperature: 41.0 F (5.0 C)
Dew Point: 12.0 F (-11.1 C)
Relative Humidity: 30%
Pressure (altimeter): 30.26 in. Hg (1024 hPa)
Pressure tendency: 0.04 inches (1.5 hPa) higher than three hours ago
ob: KCEZ 130553Z AUTO 05007KT 10SM CLR 05/M11 A3026 RMK AO2 SLP203 T00501111 10228 20050 51015
cycle: 6

Station Type Date Time Source
KCEZ TAF UTC NOAA

Error!

Example: see airport list